Time;durP1;ratioP1;P1;durP2;ratioP2;P2;SDS_P1;SDS_P2;PMS_P1;PMS_P2;Temp;Humidity;BMP_temperature;BMP_pressure;BME280_temperature;BME280_humidity;BME280_pressure;Samples;Min_cycle;Max_cycle;Signal;HPM_P1;HPM_P2
2024/04/21 00:02:03;;;;;;;2.40;1.50;;;;;;;22.61;58.20;99639.98;106652;1257;71429;-78
2024/04/21 00:04:30;;;;;;;1.90;1.60;;;;;;;22.86;57.45;99639.29;106378;1256;61430;-79
2024/04/21 00:06:59;;;;;;;2.90;1.90;;;;;;;22.85;55.42;99630.73;106537;1256;61698;-77
2024/04/21 00:09:26;;;;;;;2.10;1.90;;;;;;;24.74;47.48;99614.51;105999;1254;74652;-78
2024/04/21 00:11:54;;;;;;;3.60;2.30;;;;;;;21.37;62.89;99621.63;106299;1256;67374;-78
2024/04/21 00:14:21;;;;;;;2.50;1.70;;;;;;;20.27;75.80;99612.77;106325;1254;71480;-78
2024/04/21 00:16:49;;;;;;;1.60;1.50;;;;;;;18.83;93.49;99617.11;106468;1254;62208;-78
2024/04/21 00:19:17;;;;;;;3.80;2.00;;;;;;;18.09;99.54;99621.55;106384;1257;61154;-82
2024/04/21 00:21:44;;;;;;;3.70;2.10;;;;;;;18.18;100.00;99609.66;106403;1256;74704;-78
2024/04/21 00:24:12;;;;;;;3.00;2.20;;;;;;;18.50;100.00;99600.91;106017;1259;69331;-83
2024/04/21 00:26:40;;;;;;;2.60;1.80;;;;;;;19.86;91.58;99596.92;106218;1253;72649;-84
2024/04/21 00:29:08;;;;;;;2.20;2.00;;;;;;;20.90;77.62;99577.54;106260;1256;61457;-78
2024/04/21 00:31:35;;;;;;;2.80;1.90;;;;;;;18.75;92.23;99577.54;106274;1258;61323;-78
2024/04/21 00:34:03;;;;;;;3.60;1.90;;;;;;;17.84;100.00;99570.83;106192;1254;77340;-81
2024/04/21 00:36:30;;;;;;;5.80;1.90;;;;;;;20.51;84.30;99548.90;106164;1254;67517;-77
2024/04/21 00:38:58;;;;;;;2.70;1.90;;;;;;;20.19;79.75;99545.98;106339;1254;72641;-78
2024/04/21 00:41:25;;;;;;;3.10;1.90;;;;;;;18.57;96.66;99541.30;106155;1254;62010;-77
2024/04/21 00:43:53;;;;;;;1.90;1.60;;;;;;;22.38;64.45;99531.95;106266;1254;61486;-83
2024/04/21 00:46:20;;;;;;;2.80;2.20;;;;;;;22.86;58.22;99530.89;106260;1256;74695;-84
2024/04/21 00:48:48;;;;;;;5.40;2.70;;;;;;;22.29;62.85;99530.84;106164;1254;67660;-83
2024/04/21 00:51:19;;;;;;;3.40;2.30;;;;;;;22.68;60.20;99524.64;105958;1254;72669;-78
2024/04/21 00:53:47;;;;;;;6.20;4.00;;;;;;;23.64;52.89;99516.23;106322;1254;61145;-79
2024/04/21 00:56:19;;;;;;;5.00;2.60;;;;;;;24.27;48.89;99501.36;106391;1254;61832;-79
2024/04/21 00:58:46;;;;;;;6.00;4.20;;;;;;;19.28;83.64;99508.48;106251;1253;75112;-79
2024/04/21 01:01:14;;;;;;;3.20;2.70;;;;;;;21.80;71.37;99493.48;106353;1254;68007;-78
2024/04/21 01:03:41;;;;;;;4.20;2.80;;;;;;;19.83;81.04;99494.91;106257;1254;72761;-83
2024/04/21 01:06:09;;;;;;;5.20;2.70;;;;;;;20.95;76.96;99488.08;106200;1254;61337;-82
2024/04/21 01:08:36;;;;;;;4.50;2.50;;;;;;;21.88;66.95;99476.48;106129;1258;61203;-83
2024/04/21 01:11:04;;;;;;;2.90;2.30;;;;;;;22.47;60.98;99481.76;106152;1253;74604;-78
2024/04/21 01:13:31;;;;;;;5.40;3.10;;;;;;;22.70;57.45;99479.30;106148;1253;68574;-80
2024/04/21 01:15:59;;;;;;;10.00;3.00;;;;;;;23.30;55.80;99480.75;106004;1253;72752;-79
2024/04/21 01:18:26;;;;;;;4.20;2.20;;;;;;;23.61;52.61;99473.41;106329;1254;61384;-78
2024/04/21 01:20:54;;;;;;;6.30;3.20;;;;;;;23.92;50.19;99466.73;106191;1253;61192;-78
2024/04/21 01:23:22;;;;;;;8.50;3.00;;;;;;;24.71;46.97;99453.55;106250;1254;74640;-83
2024/04/21 01:25:49;;;;;;;6.70;3.50;;;;;;;25.56;44.18;99442.30;106336;1253;61123;-84
2024/04/21 01:28:17;;;;;;;8.90;3.90;;;;;;;24.19;47.55;99436.34;106263;1254;72700;-78
2024/04/21 01:30:44;;;;;;;4.30;2.90;;;;;;;22.79;58.21;99430.06;106285;1254;61641;-83
2024/04/21 01:33:12;;;;;;;10.50;4.00;;;;;;;23.30;54.02;99415.11;106372;1256;61194;-78
2024/04/21 01:35:41;;;;;;;8.90;3.80;;;;;;;22.65;57.43;99432.92;106270;1254;74767;-79
2024/04/21 01:38:09;;;;;;;12.20;5.10;;;;;;;23.34;54.41;99419.39;106271;1252;67681;-84
2024/04/21 01:40:36;;;;;;;12.50;4.90;;;;;;;23.53;54.21;99416.27;106338;1254;71918;-83
2024/04/21 01:43:04;;;;;;;16.70;6.10;;;;;;;23.69;53.05;99419.16;106184;1254;61295;-80
2024/04/21 01:45:32;;;;;;;14.20;5.20;;;;;;;22.93;55.50;99421.32;106073;1254;61455;-83
2024/04/21 01:47:59;;;;;;;3.60;3.10;;;;;;;22.89;56.57;99417.67;106156;1254;74652;-79
2024/04/21 01:50:27;;;;;;;8.60;3.20;;;;;;;24.36;49.41;99395.77;106219;1256;67609;-79
2024/04/21 01:52:54;;;;;;;8.60;3.70;;;;;;;23.69;51.27;99397.45;106134;1253;72727;-84
2024/04/21 01:55:21;;;;;;;4.70;2.80;;;;;;;23.58;51.58;99393.35;106191;1254;61325;-79
2024/04/21 01:57:49;;;;;;;9.30;4.10;;;;;;;23.70;51.43;99384.16;106228;1254;61346;-82
2024/04/21 02:00:17;;;;;;;5.10;3.00;;;;;;;21.02;69.82;99380.23;106366;1255;74641;-83
2024/04/21 02:02:45;;;;;;;6.80;3.00;;;;;;;20.85;77.43;99363.06;106123;1254;69049;-85
2024/04/21 02:05:12;;;;;;;11.80;3.80;;;;;;;23.29;54.29;99363.86;106232;1254;72552;-83
2024/04/21 02:07:40;;;;;;;6.60;3.80;;;;;;;21.58;67.81;99362.14;106375;1254;61353;-79
2024/04/21 02:10:07;;;;;;;8.50;5.00;;;;;;;19.12;94.05;99361.09;106305;1254;61323;-80
2024/04/21 02:12:35;;;;;;;6.50;3.00;;;;;;;19.75;91.02;99360.27;106448;1254;74708;-85
2024/04/21 02:15:03;;;;;;;8.10;3.50;;;;;;;21.28;76.05;99342.80;106231;1254;67329;-80
2024/04/21 02:17:30;;;;;;;9.40;4.60;;;;;;;20.05;86.34;99337.10;106392;1256;71144;-80
2024/04/21 02:19:58;;;;;;;9.50;4.70;;;;;;;20.58;84.82;99333.06;106290;1256;61307;-80
2024/04/21 02:22:25;;;;;;;5.30;3.20;;;;;;;22.92;62.15;99324.08;106423;1254;61209;-84
2024/04/21 02:24:53;;;;;;;12.30;5.30;;;;;;;23.86;54.29;99327.05;106348;1254;74602;-84
2024/04/21 02:27:21;;;;;;;3.60;3.00;;;;;;;24.01;52.27;99315.13;106104;1254;68443;-85
2024/04/21 02:29:48;;;;;;;4.60;3.20;;;;;;;24.32;50.88;99311.23;106166;1254;72913;-79
2024/04/21 02:32:16;;;;;;;6.90;3.80;;;;;;;23.39;54.70;99301.66;106213;1254;61378;-80
2024/04/21 02:34:43;;;;;;;5.90;3.50;;;;;;;23.11;57.78;99290.92;106191;1252;61221;-84
2024/04/21 02:37:11;;;;;;;3.40;2.40;;;;;;;22.68;59.40;99291.67;106147;1254;73451;-79
2024/04/21 02:39:38;;;;;;;5.80;2.90;;;;;;;22.83;58.58;99289.44;106275;1253;68548;-79
2024/04/21 02:42:06;;;;;;;6.10;3.50;;;;;;;21.97;66.19;99285.07;106221;1254;72798;-84
2024/04/21 02:44:33;;;;;;;5.70;3.30;;;;;;;22.02;66.54;99275.05;106305;1254;219074;-84
2024/04/21 02:47:01;;;;;;;5.30;3.20;;;;;;;22.46;62.75;99269.88;106322;1257;59921;-84
2024/04/21 02:49:28;;;;;;;6.60;2.70;;;;;;;22.32;64.36;99267.82;106436;1254;73442;-79
2024/04/21 02:51:56;;;;;;;5.60;3.10;;;;;;;22.64;61.82;99244.86;106193;1253;68617;-79
2024/04/21 02:54:26;;;;;;;4.40;3.30;;;;;;;22.46;62.90;99232.53;106469;1254;71269;-84
2024/04/21 02:56:54;;;;;;;6.70;3.10;;;;;;;22.55;62.61;99238.69;106341;1254;61857;-80
2024/04/21 02:59:21;;;;;;;7.50;3.00;;;;;;;22.82;62.22;99225.93;106197;1254;61416;-85
2024/04/21 03:01:49;;;;;;;4.60;3.30;;;;;;;22.66;62.55;99223.64;106124;1254;74759;-84
2024/04/21 03:04:17;;;;;;;5.60;3.00;;;;;;;21.65;71.87;99223.82;106315;1254;67257;-79
2024/04/21 03:06:46;;;;;;;6.50;3.10;;;;;;;19.79;85.52;99235.50;106328;1254;72771;-80
2024/04/21 03:09:13;;;;;;;4.10;2.60;;;;;;;20.92;85.02;99231.83;106422;1254;61362;-84
2024/04/21 03:11:41;;;;;;;4.80;2.80;;;;;;;21.58;78.12;99219.52;106319;1258;61241;-84
2024/04/21 03:14:09;;;;;;;5.80;2.90;;;;;;;21.55;77.26;99207.77;106396;1254;73414;-81
2024/04/21 03:16:36;;;;;;;4.10;3.00;;;;;;;22.20;70.62;99205.40;106346;1254;67547;-81
2024/04/21 03:19:03;;;;;;;3.40;2.30;;;;;;;22.36;68.76;99212.42;106377;1258;72618;-83
2024/04/21 03:21:31;;;;;;;5.10;2.90;;;;;;;22.46;68.22;99203.27;106333;1253;61679;-84
2024/04/21 03:23:59;;;;;;;5.40;3.50;;;;;;;22.47;68.04;99198.71;106309;1254;61419;-85
2024/04/21 03:26:26;;;;;;;4.10;3.20;;;;;;;22.89;64.48;99193.82;106386;1254;73395;-81
2024/04/21 03:28:54;;;;;;;4.70;3.00;;;;;;;22.86;62.46;99191.18;106322;1254;68563;-83
2024/04/21 03:31:21;;;;;;;8.70;3.40;;;;;;;21.12;77.86;99198.02;106330;1257;72446;-83
2024/04/21 03:33:49;;;;;;;4.60;3.10;;;;;;;20.59;87.97;99202.41;106423;1254;61273;-80
2024/04/21 03:36:17;;;;;;;6.00;3.20;;;;;;;21.12;83.71;99196.83;106210;1254;61154;-80
2024/04/21 03:38:44;;;;;;;6.80;4.10;;;;;;;21.02;85.49;99194.66;106558;1254;74838;-86
2024/04/21 03:41:12;;;;;;;4.90;3.20;;;;;;;21.40;82.31;99183.46;106222;1254;68467;-85
2024/04/21 03:43:39;;;;;;;3.60;2.80;;;;;;;21.17;84.12;99162.77;106409;1254;72748;-80
2024/04/21 03:46:07;;;;;;;4.00;2.50;;;;;;;21.30;83.83;99166.86;106371;1253;61279;-80
2024/04/21 03:48:35;;;;;;;5.30;3.80;;;;;;;21.12;85.16;99175.16;106353;1253;61353;-85
2024/04/21 03:51:03;;;;;;;6.00;3.60;;;;;;;20.64;89.47;99181.03;106346;1254;74663;-83
2024/04/21 03:53:30;;;;;;;4.70;3.00;;;;;;;20.00;96.86;99165.52;106332;1254;66249;-80
2024/04/21 03:55:58;;;;;;;5.70;2.90;;;;;;;20.04;98.46;99142.68;106153;1253;72283;-85
2024/04/21 03:58:25;;;;;;;4.50;3.30;;;;;;;20.04;98.14;99127.63;106258;1256;61318;-80
2024/04/21 04:00:53;;;;;;;3.80;3.10;;;;;;;20.53;93.70;99116.29;106123;1259;61304;-79
2024/04/21 04:03:21;;;;;;;8.30;3.30;;;;;;;20.80;91.51;99097.73;106284;1254;74600;-81
2024/04/21 04:05:49;;;;;;;6.10;3.40;;;;;;;21.22;86.87;99096.86;106262;1258;67574;-84
2024/04/21 04:08:16;;;;;;;6.30;2.80;;;;;;;21.38;83.95;99099.21;106330;1253;72743;-79
2024/04/21 04:10:44;;;;;;;7.60;3.20;;;;;;;21.75;82.64;99113.33;106250;1254;61255;-85
2024/04/21 04:13:11;;;;;;;6.40;3.10;;;;;;;21.29;83.29;99131.61;106179;1254;61184;-80
2024/04/21 04:15:39;;;;;;;5.50;2.70;;;;;;;21.46;81.64;99122.23;106262;1254;73852;-85
2024/04/21 04:18:07;;;;;;;6.10;2.70;;;;;;;21.71;79.21;99107.08;106376;1254;69284;-85
2024/04/21 04:20:35;;;;;;;7.60;3.10;;;;;;;21.97;77.35;99112.88;106267;1254;71661;-80
2024/04/21 04:23:05;;;;;;;6.00;3.00;;;;;;;22.06;80.10;99118.60;106283;1259;61745;-79
2024/04/21 04:25:32;;;;;;;3.20;2.80;;;;;;;22.28;75.83;99114.52;106109;1254;61377;-86
2024/04/21 04:28:00;;;;;;;3.80;2.90;;;;;;;22.58;71.64;99103.73;106383;1254;72998;-86
2024/04/21 04:30:28;;;;;;;4.20;2.80;;;;;;;22.93;68.13;99093.96;106298;1252;68500;-80
2024/04/21 04:32:55;;;;;;;8.10;3.20;;;;;;;23.20;65.63;99090.90;106315;1258;72550;-80
2024/04/21 04:35:23;;;;;;;4.30;3.10;;;;;;;22.37;72.92;99080.27;106407;1255;61369;-80
2024/04/21 04:37:51;;;;;;;6.00;3.20;;;;;;;22.17;74.92;99077.42;106265;1253;61238;-80
2024/04/21 04:40:22;;;;;;;7.40;2.80;;;;;;;22.45;74.44;99077.14;106229;1257;74692;-80
2024/04/21 04:42:50;;;;;;;5.60;3.10;;;;;;;22.88;71.39;99083.46;106431;1252;67648;-79
2024/04/21 04:45:19;;;;;;;5.40;3.10;;;;;;;22.99;69.29;99081.73;106394;1253;71469;-85
2024/04/21 04:47:46;;;;;;;3.50;2.70;;;;;;;22.87;69.94;99078.27;106255;1259;62165;-85
2024/04/21 04:50:14;;;;;;;6.60;2.90;;;;;;;22.39;75.33;99078.88;106283;1254;61330;-80
2024/04/21 04:52:42;;;;;;;4.20;2.70;;;;;;;22.30;76.27;99075.79;106393;1254;74711;-81
2024/04/21 04:55:09;;;;;;;5.30;2.80;;;;;;;22.27;77.55;99075.70;106635;1254;67386;-80
2024/04/21 04:57:37;;;;;;;5.40;3.30;;;;;;;22.85;73.14;99079.55;106391;1253;72733;-81
2024/04/21 05:00:06;;;;;;;3.80;2.80;;;;;;;22.62;75.86;99082.59;106322;1254;61298;-80
2024/04/21 05:02:33;;;;;;;4.50;3.20;;;;;;;22.27;79.22;99084.90;106263;1256;61238;-80
2024/04/21 05:05:05;;;;;;;9.30;3.60;;;;;;;22.15;82.25;99082.73;106127;1254;73440;-81
2024/04/21 05:07:34;;;;;;;6.50;3.10;;;;;;;22.32;81.27;99079.53;106345;1254;68876;-80
2024/04/21 05:10:02;;;;;;;5.90;2.60;;;;;;;22.45;79.49;99078.80;106475;1257;73509;-81
2024/04/21 05:12:29;;;;;;;4.50;2.70;;;;;;;22.60;81.30;99076.06;106250;1259;61414;-85
2024/04/21 05:14:57;;;;;;;4.00;2.40;;;;;;;23.04;75.08;99067.08;106189;1253;61392;-86
2024/04/21 05:17:24;;;;;;;5.10;3.10;;;;;;;23.30;71.81;99070.84;106394;1254;73324;-86
2024/04/21 05:19:52;;;;;;;6.10;2.80;;;;;;;23.34;73.90;99073.71;106271;1258;67605;-86
2024/04/21 05:22:19;;;;;;;5.70;2.70;;;;;;;23.74;73.07;99074.14;106034;1254;71443;-85
2024/04/21 05:24:47;;;;;;;4.10;2.70;;;;;;;23.60;75.58;99074.17;106265;1254;61831;-86
2024/04/21 05:27:14;;;;;;;5.30;2.80;;;;;;;23.78;71.36;99075.81;106205;1256;61266;-81
2024/04/21 05:29:42;;;;;;;8.20;3.30;;;;;;;24.06;69.10;99073.27;106460;1258;74701;-81
2024/04/21 05:32:09;;;;;;;6.80;2.80;;;;;;;24.33;67.30;99066.30;106411;1257;67337;-81
2024/04/21 05:34:37;;;;;;;6.50;2.90;;;;;;;24.41;65.94;99069.06;106264;1254;71455;-81
2024/04/21 05:37:05;;;;;;;7.00;2.80;;;;;;;24.41;66.71;99066.50;106302;1254;61305;-81
2024/04/21 05:39:32;;;;;;;5.90;3.00;;;;;;;24.10;68.70;99058.19;106285;1253;61201;-81
2024/04/21 05:42:00;;;;;;;7.00;2.90;;;;;;;24.48;65.60;99056.35;106513;1257;74931;-81
2024/04/21 05:44:27;;;;;;;8.70;3.30;;;;;;;24.95;61.44;99053.67;106236;1254;68918;-81
2024/04/21 05:46:55;;;;;;;6.20;2.60;;;;;;;25.23;58.38;99045.39;106330;1259;72750;-80
2024/04/21 05:49:22;;;;;;;8.80;2.50;;;;;;;26.51;52.73;99036.82;106380;1253;61269;-84
2024/04/21 05:51:51;;;;;;;4.90;3.00;;;;;;;26.99;49.88;99037.38;106099;1259;61172;-86
2024/04/21 05:54:18;;;;;;;7.00;3.00;;;;;;;27.21;49.12;99041.98;106300;1254;66033;-81
2024/04/21 05:56:46;;;;;;;3.80;2.90;;;;;;;25.38;59.25;99051.05;106117;1259;61208;-86
2024/04/21 05:59:13;;;;;;;6.10;2.40;;;;;;;24.07;72.71;99057.33;106274;1253;73816;-81
2024/04/21 06:01:41;;;;;;;4.70;2.60;;;;;;;23.80;75.38;99058.42;106487;1256;61368;-81
2024/04/21 06:04:08;;;;;;;6.80;2.90;;;;;;;24.20;72.41;99056.71;106364;1253;61285;-86
2024/04/21 06:06:36;;;;;;;4.80;2.70;;;;;;;24.65;68.99;99052.91;106258;1254;74741;-87
2024/04/21 06:09:03;;;;;;;4.50;2.30;;;;;;;24.55;68.47;99040.76;106656;1256;68622;-81
2024/04/21 06:11:31;;;;;;;5.60;2.40;;;;;;;23.73;75.02;99026.58;106514;1254;72489;-85
2024/04/21 06:14:05;;;;;;;5.30;2.80;;;;;;;23.69;76.28;99022.45;106746;1254;61281;-85
2024/04/21 06:16:33;;;;;;;5.10;2.50;;;;;;;23.97;75.72;99025.00;106640;1259;61258;-82
2024/04/21 06:19:00;;;;;;;9.00;2.90;;;;;;;23.98;75.87;99028.42;106360;1254;75079;-85
2024/04/21 06:21:28;;;;;;;9.50;2.70;;;;;;;24.15;74.87;99030.73;106385;1254;69187;-85
2024/04/21 06:23:55;;;;;;;7.60;3.10;;;;;;;24.07;77.55;99034.77;106401;1254;72698;-80
2024/04/21 06:26:23;;;;;;;6.60;2.80;;;;;;;24.68;74.04;99041.02;106344;1256;61231;-81
2024/04/21 06:28:51;;;;;;;9.30;3.10;;;;;;;24.38;77.91;99039.00;106456;1254;61349;-85
2024/04/21 06:31:19;;;;;;;8.90;3.10;;;;;;;24.33;78.71;99040.39;106320;1254;73426;-80
2024/04/21 06:33:47;;;;;;;8.00;4.80;;;;;;;24.07;82.77;99041.31;106258;1254;67618;-80
2024/04/21 06:36:14;;;;;;;7.80;3.60;;;;;;;24.47;81.26;99051.02;106450;1259;72697;-79
2024/04/21 06:38:42;;;;;;;7.80;3.50;;;;;;;24.76;79.34;99053.81;106485;1255;61129;-86
2024/04/21 06:41:11;;;;;;;5.20;3.90;;;;;;;24.77;80.34;99054.84;106369;1253;62004;-86
2024/04/21 06:43:39;;;;;;;6.20;3.30;;;;;;;25.01;78.99;99058.75;106399;1256;74619;-80
2024/04/21 06:46:06;;;;;;;11.40;3.90;;;;;;;24.98;79.70;99056.84;106440;1254;61185;-80
2024/04/21 06:48:34;;;;;;;11.80;4.10;;;;;;;25.28;76.58;99054.39;106444;1254;62574;-85
2024/04/21 06:51:02;;;;;;;9.30;4.60;;;;;;;25.39;75.03;99053.02;106326;1252;61308;-86
2024/04/21 06:53:30;;;;;;;8.80;4.20;;;;;;;25.05;78.33;99050.00;106243;1259;61141;-88
2024/04/21 06:56:01;;;;;;;13.60;4.70;;;;;;;24.92;81.13;99043.15;106276;1254;73106;-85
2024/04/21 06:58:29;;;;;;;7.50;4.50;;;;;;;25.06;81.74;99044.81;106468;1256;61248;-80
2024/04/21 07:00:57;;;;;;;9.00;4.90;;;;;;;25.39;80.68;99042.55;106443;1254;62525;-86
2024/04/21 07:03:24;;;;;;;8.50;4.40;;;;;;;26.29;74.73;99046.20;106432;1256;61278;-86
2024/04/21 07:05:52;;;;;;;10.00;5.00;;;;;;;25.68;81.90;99048.38;106372;1254;61244;-80
2024/04/21 07:08:36;;;;;;;8.50;4.90;;;;;;;24.73;92.73;99051.27;106397;1256;74595;-85
2024/04/21 07:11:11;;;;;;;12.00;5.30;;;;;;;24.55;98.75;99047.63;106266;1254;68432;-86
2024/04/21 07:13:39;;;;;;;12.00;5.20;;;;;;;25.38;93.71;99046.83;106395;1257;63835;-81
2024/04/21 07:16:06;;;;;;;11.10;5.10;;;;;;;25.17;94.93;99047.04;106557;1257;63065;-81
2024/04/21 07:18:35;;;;;;;16.40;6.00;;;;;;;25.04;97.84;99047.64;107193;1256;61169;-81
2024/04/21 07:21:03;;;;;;;14.10;6.60;;;;;;;24.91;99.51;99045.23;106562;1259;75667;-88
2024/04/21 07:23:31;;;;;;;17.00;7.50;;;;;;;25.09;98.32;99046.04;106548;1254;67580;-87
2024/04/21 07:25:58;;;;;;;23.10;9.60;;;;;;;25.67;93.87;99041.55;106286;1259;64445;-87
2024/04/21 07:28:26;;;;;;;24.70;10.10;;;;;;;25.19;93.19;99049.00;106450;1254;61251;-86
2024/04/21 07:30:54;;;;;;;30.00;10.60;;;;;;;22.17;100.00;99058.16;106789;1253;61167;-86
2024/04/21 07:33:22;;;;;;;29.30;11.40;;;;;;;22.31;100.00;99060.81;106452;1254;75654;-81
2024/04/21 07:35:50;;;;;;;24.30;11.80;;;;;;;23.40;100.00;99058.44;106516;1253;67898;-85
2024/04/21 07:38:17;;;;;;;25.80;11.30;;;;;;;22.53;100.00;99067.75;106736;1254;72505;-85
2024/04/21 07:40:45;;;;;;;22.00;10.00;;;;;;;22.45;100.00;99069.88;106734;1254;61378;-85
2024/04/21 07:43:14;;;;;;;20.30;9.30;;;;;;;23.78;100.00;99068.55;106596;1254;61752;-85
2024/04/21 07:45:45;;;;;;;21.20;8.80;;;;;;;22.99;100.00;99069.77;106583;1259;76807;-80
2024/04/21 07:48:13;;;;;;;19.20;8.40;;;;;;;24.47;100.00;99057.25;106416;1253;70983;-80
2024/04/21 07:50:44;;;;;;;17.70;7.30;;;;;;;23.92;100.00;99055.14;106719;1254;71249;-85
2024/04/21 07:53:11;;;;;;;13.70;7.30;;;;;;;25.36;100.00;99057.05;106815;1259;61285;-80
2024/04/21 07:55:39;;;;;;;12.50;6.00;;;;;;;24.08;100.00;99058.23;107223;1254;61150;-86
2024/04/21 07:58:06;;;;;;;12.40;5.80;;;;;;;26.77;100.00;99056.51;106716;1254;76324;-80
2024/04/21 08:00:40;;;;;;;10.50;5.30;;;;;;;26.96;99.38;99056.94;106945;1254;62610;-85
2024/04/21 08:03:08;;;;;;;6.60;4.10;;;;;;;26.86;96.78;99053.75;106859;1254;63773;-85
2024/04/21 08:05:35;;;;;;;10.90;4.30;;;;;;;27.03;98.80;99047.31;106953;1259;61160;-84
2024/04/21 08:08:03;;;;;;;10.00;4.30;;;;;;;28.36;81.42;99044.88;106741;1253;62303;-81
2024/04/21 08:10:31;;;;;;;6.10;3.80;;;;;;;28.70;77.38;99045.27;106384;1259;75931;-86
2024/04/21 08:12:58;;;;;;;8.10;3.80;;;;;;;28.37;76.40;99048.95;106280;1254;62460;-81
2024/04/21 08:15:26;;;;;;;8.90;3.50;;;;;;;27.56;90.14;99048.42;106462;1254;74864;-82
2024/04/21 08:17:55;;;;;;;8.40;4.20;;;;;;;26.27;96.75;99055.55;106411;1253;61362;-86
2024/04/21 08:20:22;;;;;;;9.90;3.70;;;;;;;25.38;100.00;99060.22;106454;1256;61200;-86
2024/04/21 08:22:50;;;;;;;8.60;3.90;;;;;;;27.17;100.00;99061.04;106425;1254;76508;-85
2024/04/21 08:25:17;;;;;;;5.60;3.00;;;;;;;27.66;94.75;99059.23;106469;1254;61299;-82
2024/04/21 08:27:45;;;;;;;5.70;3.10;;;;;;;27.42;95.42;99064.82;106500;1253;72376;-82
2024/04/21 08:30:13;;;;;;;7.50;2.60;;;;;;;25.62;98.08;99072.70;106493;1254;61168;-81
2024/04/21 08:32:40;;;;;;;3.30;1.80;;;;;;;27.04;89.32;99072.61;106343;1254;61350;-85
2024/04/21 08:35:08;;;;;;;2.80;1.70;;;;;;;27.72;72.04;99082.15;106340;1253;65255;-81
2024/04/21 08:37:35;;;;;;;2.50;1.10;;;;;;;28.10;66.29;99084.64;106429;1254;62125;-82
2024/04/21 08:40:04;;;;;;;2.70;1.60;;;;;;;27.86;68.80;99092.23;106391;1257;65942;-84
2024/04/21 08:42:35;;;;;;;3.20;1.40;;;;;;;25.74;88.91;99097.98;106412;1254;63921;-82
2024/04/21 08:45:04;;;;;;;2.00;1.30;;;;;;;24.98;98.81;99104.11;106324;1254;61734;-86
2024/04/21 08:47:32;;;;;;;2.40;1.30;;;;;;;25.43;97.99;99101.60;106421;1254;75629;-86
2024/04/21 08:50:00;;;;;;;5.60;1.40;;;;;;;26.98;84.06;99095.36;106422;1254;70972;-88
2024/04/21 08:52:32;;;;;;;3.20;1.20;;;;;;;27.73;78.29;99093.52;106432;1253;74238;-86
2024/04/21 08:55:00;;;;;;;1.70;1.30;;;;;;;28.49;71.06;99092.35;106323;1253;62166;-87
2024/04/21 08:57:28;;;;;;;5.20;1.60;;;;;;;28.56;70.74;99096.23;106414;1254;61301;-85
2024/04/21 08:59:57;;;;;;;3.30;1.30;;;;;;;28.47;76.66;99098.27;106237;1258;66548;-85
2024/04/21 09:02:28;;;;;;;5.50;1.30;;;;;;;29.35;69.45;99105.42;106347;1254;61349;-87
2024/04/21 09:04:56;;;;;;;5.40;1.50;;;;;;;29.76;60.27;99113.64;106241;1254;62863;-87
2024/04/21 09:07:24;;;;;;;4.20;1.60;;;;;;;28.93;65.64;99120.64;106315;1256;61355;-80
2024/04/21 09:09:53;;;;;;;2.30;1.40;;;;;;;28.02;75.25;99121.16;106343;1256;61950;-86
2024/04/21 09:12:21;;;;;;;3.60;1.30;;;;;;;28.02;81.73;99121.71;106390;1254;76819;-80
2024/04/21 09:14:48;;;;;;;3.00;1.60;;;;;;;29.04;77.93;99119.81;106326;1254;71071;-86
2024/04/21 09:17:15;;;;;;;2.60;1.50;;;;;;;28.61;81.79;99127.86;106203;1254;64647;-86
2024/04/21 09:19:43;;;;;;;5.10;1.80;;;;;;;28.89;78.07;99123.65;106304;1255;61349;-81
2024/04/21 09:22:10;;;;;;;2.90;1.70;;;;;;;29.83;65.64;99122.79;106431;1253;61368;-81
2024/04/21 09:24:38;;;;;;;2.40;1.50;;;;;;;29.68;63.01;99118.45;106465;1254;67082;-87
2024/04/21 09:27:06;;;;;;;4.20;1.30;;;;;;;28.52;77.26;99117.44;106342;1254;70668;-81
2024/04/21 09:29:33;;;;;;;2.60;1.60;;;;;;;29.84;65.34;99115.03;106265;1259;70888;-86
2024/04/21 09:32:01;;;;;;;5.90;1.60;;;;;;;29.21;74.44;99113.33;106250;1255;61168;-87
2024/04/21 09:34:28;;;;;;;4.90;1.60;;;;;;;30.22;72.93;99111.55;106278;1254;62225;-87
2024/04/21 09:36:56;;;;;;;2.20;1.40;;;;;;;29.38;78.22;99118.23;106452;1253;75678;-80
2024/04/21 09:39:24;;;;;;;2.00;1.30;;;;;;;29.31;68.18;99116.86;106379;1254;62198;-84
2024/04/21 09:41:51;;;;;;;4.80;1.30;;;;;;;29.33;68.23;99115.75;106113;1254;65729;-86
2024/04/21 09:44:19;;;;;;;2.10;1.30;;;;;;;27.75;77.60;99120.89;106374;1254;62086;-87
2024/04/21 09:46:46;;;;;;;3.40;1.20;;;;;;;29.21;66.31;99122.80;106423;1253;61186;-87
2024/04/21 09:49:17;;;;;;;1.50;1.40;;;;;;;30.44;57.62;99125.00;106349;1259;66160;-87
2024/04/21 09:51:45;;;;;;;4.30;1.40;;;;;;;30.03;59.00;99129.67;106375;1254;62394;-86
2024/04/21 09:54:19;;;;;;;2.40;1.20;;;;;;;28.44;66.47;99132.30;106713;1254;66454;-87
2024/04/21 09:56:51;;;;;;;2.90;0.90;;;;;;;27.78;73.68;99125.51;106601;1257;62035;-87
2024/04/21 09:59:21;;;;;;;3.70;1.50;;;;;;;29.89;60.09;99117.89;106300;1259;61243;-86
2024/04/21 10:01:48;;;;;;;2.30;1.30;;;;;;;29.97;56.40;99109.10;106584;1259;77797;-80
2024/04/21 10:04:18;;;;;;;2.10;1.40;;;;;;;30.37;59.04;99109.67;106327;1254;61505;-86
2024/04/21 10:06:48;;;;;;;2.80;1.10;;;;;;;29.38;71.51;99112.73;106441;1254;73410;-79
2024/04/21 10:09:17;;;;;;;3.20;1.30;;;;;;;29.74;69.26;99115.00;106368;1259;61311;-88
2024/04/21 10:11:44;;;;;;;4.60;1.20;;;;;;;29.61;68.15;99115.86;106327;1260;61323;-88
2024/04/21 10:14:12;;;;;;;2.40;1.30;;;;;;;29.35;73.15;99117.27;106257;1254;68431;-81
2024/04/21 10:16:41;;;;;;;2.10;1.30;;;;;;;29.82;71.07;99108.48;106554;1253;71033;-86
2024/04/21 10:19:09;;;;;;;2.00;1.20;;;;;;;28.10;80.76;99108.66;106511;1257;74814;-80
2024/04/21 10:21:36;;;;;;;1.70;1.30;;;;;;;27.27;92.44;99112.52;106423;1256;61298;-87
2024/04/21 10:24:04;;;;;;;4.10;1.40;;;;;;;28.33;81.70;99110.73;106583;1256;61180;-87
2024/04/21 10:26:32;;;;;;;3.20;1.30;;;;;;;29.51;70.16;99105.06;106349;1254;64860;-80
2024/04/21 10:29:12;;;;;;;2.00;1.30;;;;;;;29.92;70.32;99100.54;106577;1254;70478;-87
2024/04/21 10:31:40;;;;;;;1.90;1.20;;;;;;;29.89;70.01;99094.50;106314;1254;73149;-81
2024/04/21 10:34:11;;;;;;;3.30;1.30;;;;;;;29.81;70.61;99095.59;106458;1257;61320;-80
2024/04/21 10:36:45;;;;;;;4.80;1.00;;;;;;;28.51;84.92;99099.39;106488;1256;61291;-80
2024/04/21 10:39:24;;;;;;;5.30;1.80;;;;;;;28.02;88.52;99100.30;106417;1258;66990;-87
2024/04/21 10:41:56;;;;;;;4.00;1.30;;;;;;;27.78;94.07;99100.80;106282;1254;62004;-80
2024/04/21 10:44:24;;;;;;;3.00;1.10;;;;;;;27.55;92.84;99106.26;106251;1258;74972;-80
2024/04/21 10:46:51;;;;;;;3.90;1.20;;;;;;;27.96;89.16;99115.04;106290;1256;61656;-80
2024/04/21 10:49:19;;;;;;;3.80;1.20;;;;;;;28.75;80.41;99122.09;106477;1253;62214;-86
2024/04/21 10:51:47;;;;;;;4.30;1.30;;;;;;;28.73;77.38;99124.42;106764;1254;68081;-81
2024/04/21 10:54:14;;;;;;;4.70;1.50;;;;;;;27.86;79.46;99133.98;106782;1259;67084;-81
2024/04/21 10:56:42;;;;;;;6.70;2.00;;;;;;;26.90;88.48;99145.58;107464;1254;65974;-79
2024/04/21 10:59:09;;;;;;;6.60;1.50;;;;;;;26.49;88.79;99160.86;106608;1254;63629;-81
2024/04/21 11:01:37;;;;;;;6.20;1.50;;;;;;;26.50;85.71;99168.84;106246;1255;62243;-82
2024/04/21 11:04:04;;;;;;;4.10;1.60;;;;;;;26.04;86.83;99169.34;106528;1257;66120;-82
2024/04/21 11:06:32;;;;;;;3.40;1.60;;;;;;;26.07;83.98;99181.63;106454;1259;67614;-82
2024/04/21 11:08:59;;;;;;;5.70;1.90;;;;;;;25.73;85.78;99186.62;106669;1256;66600;-84
2024/04/21 11:11:28;;;;;;;4.40;2.10;;;;;;;25.56;87.40;99187.02;106412;1254;63863;-91
2024/04/21 11:13:56;;;;;;;7.40;2.00;;;;;;;25.34;89.95;99178.42;106350;1260;61173;-82
2024/04/21 11:16:25;;;;;;;6.90;2.20;;;;;;;24.15;98.18;99173.05;105957;1259;76234;-88
2024/04/21 11:18:52;;;;;;;5.50;2.30;;;;;;;23.71;100.00;99169.36;106302;1255;71459;-81
2024/04/21 11:21:20;;;;;;;4.70;3.10;;;;;;;24.01;100.00;99166.39;106004;1254;72706;-88
2024/04/21 11:23:47;;;;;;;4.60;2.20;;;;;;;23.95;100.00;99161.55;106157;1254;62652;-86
2024/04/21 11:26:16;;;;;;;5.20;2.20;;;;;;;24.19;100.00;99158.30;106340;1259;61244;-80
2024/04/21 11:28:43;;;;;;;3.50;1.80;;;;;;;24.65;100.00;99157.19;106451;1254;76908;-87